sensor_id;sensor_type;location;lat;lon;timestamp;temperature;humidity
38241;DHT22;24037;49.536;8.500;2022-08-21T00:01:03;15.60;99.90
38241;DHT22;24037;49.536;8.500;2022-08-21T00:03:31;15.50;99.90
38241;DHT22;24037;49.536;8.500;2022-08-21T00:05:58;15.60;99.90
38241;DHT22;24037;49.536;8.500;2022-08-21T00:08:24;15.40;99.90
38241;DHT22;24037;49.536;8.500;2022-08-21T00:10:50;15.30;99.90
38241;DHT22;24037;49.536;8.500;2022-08-21T00:13:16;15.10;99.90
38241;DHT22;24037;49.536;8.500;2022-08-21T00:15:43;15.00;99.90
38241;DHT22;24037;49.536;8.500;2022-08-21T00:18:09;14.90;99.90
38241;DHT22;24037;49.536;8.500;2022-08-21T00:20:36;14.90;99.90
38241;DHT22;24037;49.536;8.500;2022-08-21T00:23:03;14.90;99.90
38241;DHT22;24037;49.536;8.500;2022-08-21T00:25:29;14.90;99.90
38241;DHT22;24037;49.536;8.500;2022-08-21T00:27:55;14.80;99.90
38241;DHT22;24037;49.536;8.500;2022-08-21T00:30:22;14.70;99.90
38241;DHT22;24037;49.536;8.500;2022-08-21T00:32:49;14.70;99.90
38241;DHT22;24037;49.536;8.500;2022-08-21T00:35:16;14.80;99.90
38241;DHT22;24037;49.536;8.500;2022-08-21T00:37:43;14.90;99.90
38241;DHT22;24037;49.536;8.500;2022-08-21T00:40:12;14.90;99.90
38241;DHT22;24037;49.536;8.500;2022-08-21T00:42:39;14.80;99.90
38241;DHT22;24037;49.536;8.500;2022-08-21T00:45:05;14.80;99.90
38241;DHT22;24037;49.536;8.500;2022-08-21T00:47:32;14.70;99.90
38241;DHT22;24037;49.536;8.500;2022-08-21T00:49:58;14.70;99.90
38241;DHT22;24037;49.536;8.500;2022-08-21T00:52:28;14.70;99.90
38241;DHT22;24037;49.536;8.500;2022-08-21T00:54:55;14.70;99.90
38241;DHT22;24037;49.536;8.500;2022-08-21T00:57:25;14.60;99.90
38241;DHT22;24037;49.536;8.500;2022-08-21T00:59:53;14.60;99.90
38241;DHT22;24037;49.536;8.500;2022-08-21T01:02:21;14.60;99.90
38241;DHT22;24037;49.536;8.500;2022-08-21T01:04:47;14.60;99.90
38241;DHT22;24037;49.536;8.500;2022-08-21T01:07:13;14.60;99.90
38241;DHT22;24037;49.536;8.500;2022-08-21T01:09:39;14.70;99.90
38241;DHT22;24037;49.536;8.500;2022-08-21T01:12:06;14.80;99.90
38241;DHT22;24037;49.536;8.500;2022-08-21T01:14:32;14.70;99.90
38241;DHT22;24037;49.536;8.500;2022-08-21T01:16:58;14.70;99.90
38241;DHT22;24037;49.536;8.500;2022-08-21T01:19:25;14.50;99.90
38241;DHT22;24037;49.536;8.500;2022-08-21T01:21:52;14.40;99.90
38241;DHT22;24037;49.536;8.500;2022-08-21T01:24:19;14.30;99.90
38241;DHT22;24037;49.536;8.500;2022-08-21T01:26:45;14.20;99.90
38241;DHT22;24037;49.536;8.500;2022-08-21T01:31:53;14.40;99.90
38241;DHT22;24037;49.536;8.500;2022-08-21T01:34:19;14.40;99.90
38241;DHT22;24037;49.536;8.500;2022-08-21T01:36:45;14.30;99.90
38241;DHT22;24037;49.536;8.500;2022-08-21T01:39:11;14.30;99.90
38241;DHT22;24037;49.536;8.500;2022-08-21T01:41:37;14.20;99.90
38241;DHT22;24037;49.536;8.500;2022-08-21T01:44:04;14.00;99.90
38241;DHT22;24037;49.536;8.500;2022-08-21T01:46:30;13.80;99.90
38241;DHT22;24037;49.536;8.500;2022-08-21T01:48:56;13.70;99.90
38241;DHT22;24037;49.536;8.500;2022-08-21T01:51:22;13.70;99.90
38241;DHT22;24037;49.536;8.500;2022-08-21T01:53:48;13.80;99.90
38241;DHT22;24037;49.536;8.500;2022-08-21T01:56:14;13.90;99.90
38241;DHT22;24037;49.536;8.500;2022-08-21T01:58:41;13.90;99.90
38241;DHT22;24037;49.536;8.500;2022-08-21T02:01:07;13.90;99.90
38241;DHT22;24037;49.536;8.500;2022-08-21T02:03:33;13.90;99.90
38241;DHT22;24037;49.536;8.500;2022-08-21T02:05:59;13.90;99.90
38241;DHT22;24037;49.536;8.500;2022-08-21T02:08:26;13.70;99.90
38241;DHT22;24037;49.536;8.500;2022-08-21T02:10:53;13.50;99.90
38241;DHT22;24037;49.536;8.500;2022-08-21T02:13:19;13.40;99.90
38241;DHT22;24037;49.536;8.500;2022-08-21T02:15:45;13.30;99.90
38241;DHT22;24037;49.536;8.500;2022-08-21T02:18:11;13.30;99.90
38241;DHT22;24037;49.536;8.500;2022-08-21T02:20:39;13.20;99.90
38241;DHT22;24037;49.536;8.500;2022-08-21T02:23:06;13.40;99.90
38241;DHT22;24037;49.536;8.500;2022-08-21T02:25:32;13.50;99.90
38241;DHT22;24037;49.536;8.500;2022-08-21T02:27:59;13.60;99.90
38241;DHT22;24037;49.536;8.500;2022-08-21T02:30:27;13.50;99.90
38241;DHT22;24037;49.536;8.500;2022-08-21T02:32:53;13.40;99.90
38241;DHT22;24037;49.536;8.500;2022-08-21T02:35:20;13.20;99.90
38241;DHT22;24037;49.536;8.500;2022-08-21T02:37:50;13.10;99.90
38241;DHT22;24037;49.536;8.500;2022-08-21T02:40:18;13.10;99.90
38241;DHT22;24037;49.536;8.500;2022-08-21T02:42:44;13.10;99.90
38241;DHT22;24037;49.536;8.500;2022-08-21T02:45:11;13.10;99.90
38241;DHT22;24037;49.536;8.500;2022-08-21T02:47:37;13.20;99.90
38241;DHT22;24037;49.536;8.500;2022-08-21T02:50:03;13.30;99.90
38241;DHT22;24037;49.536;8.500;2022-08-21T02:52:30;13.20;99.90
38241;DHT22;24037;49.536;8.500;2022-08-21T02:54:56;13.10;99.90
38241;DHT22;24037;49.536;8.500;2022-08-21T02:57:22;13.10;99.90
38241;DHT22;24037;49.536;8.500;2022-08-21T02:59:48;13.10;99.90
38241;DHT22;24037;49.536;8.500;2022-08-21T03:02:14;13.10;99.90
38241;DHT22;24037;49.536;8.500;2022-08-21T03:04:40;13.10;99.90
38241;DHT22;24037;49.536;8.500;2022-08-21T03:07:06;13.00;99.90
38241;DHT22;24037;49.536;8.500;2022-08-21T03:09:33;13.00;99.90
38241;DHT22;24037;49.536;8.500;2022-08-21T03:11:59;12.90;99.90
38241;DHT22;24037;49.536;8.500;2022-08-21T03:14:25;12.90;99.90
38241;DHT22;24037;49.536;8.500;2022-08-21T03:16:51;12.80;99.90
38241;DHT22;24037;49.536;8.500;2022-08-21T03:19:17;12.80;99.90
38241;DHT22;24037;49.536;8.500;2022-08-21T03:21:43;12.80;99.90
38241;DHT22;24037;49.536;8.500;2022-08-21T03:24:09;12.80;99.90
38241;DHT22;24037;49.536;8.500;2022-08-21T03:26:35;12.60;99.90
38241;DHT22;24037;49.536;8.500;2022-08-21T03:29:01;12.50;99.90
38241;DHT22;24037;49.536;8.500;2022-08-21T03:31:27;12.40;99.90
38241;DHT22;24037;49.536;8.500;2022-08-21T03:33:57;12.30;99.90
38241;DHT22;24037;49.536;8.500;2022-08-21T03:36:23;12.20;99.90
38241;DHT22;24037;49.536;8.500;2022-08-21T03:38:49;12.10;99.90
38241;DHT22;24037;49.536;8.500;2022-08-21T03:41:15;12.00;99.90
38241;DHT22;24037;49.536;8.500;2022-08-21T03:43:41;12.00;99.90
38241;DHT22;24037;49.536;8.500;2022-08-21T03:46:07;11.90;99.90
38241;DHT22;24037;49.536;8.500;2022-08-21T03:48:34;11.90;99.90
38241;DHT22;24037;49.536;8.500;2022-08-21T03:51:00;11.90;99.90
38241;DHT22;24037;49.536;8.500;2022-08-21T03:53:27;11.90;99.90
38241;DHT22;24037;49.536;8.500;2022-08-21T03:55:53;11.90;99.90
38241;DHT22;24037;49.536;8.500;2022-08-21T03:58:21;12.00;99.90
38241;DHT22;24037;49.536;8.500;2022-08-21T04:00:48;12.20;99.90
38241;DHT22;24037;49.536;8.500;2022-08-21T04:03:14;12.30;99.90
38241;DHT22;24037;49.536;8.500;2022-08-21T04:05:41;12.40;99.90
38241;DHT22;24037;49.536;8.500;2022-08-21T04:08:07;12.30;99.90
38241;DHT22;24037;49.536;8.500;2022-08-21T04:10:34;12.40;99.90
38241;DHT22;24037;49.536;8.500;2022-08-21T04:13:00;12.50;99.90
38241;DHT22;24037;49.536;8.500;2022-08-21T04:15:26;12.50;99.90
38241;DHT22;24037;49.536;8.500;2022-08-21T04:17:52;12.40;99.90
38241;DHT22;24037;49.536;8.500;2022-08-21T04:20:19;12.40;99.90
38241;DHT22;24037;49.536;8.500;2022-08-21T04:22:46;12.50;99.90
38241;DHT22;24037;49.536;8.500;2022-08-21T04:25:13;12.40;99.90
38241;DHT22;24037;49.536;8.500;2022-08-21T04:27:39;12.50;99.90
38241;DHT22;24037;49.536;8.500;2022-08-21T04:30:06;12.40;99.90
38241;DHT22;24037;49.536;8.500;2022-08-21T04:32:32;12.20;99.90
38241;DHT22;24037;49.536;8.500;2022-08-21T04:35:03;12.10;99.90
38241;DHT22;24037;49.536;8.500;2022-08-21T04:37:30;11.90;99.90
38241;DHT22;24037;49.536;8.500;2022-08-21T04:39:56;12.00;99.90
38241;DHT22;24037;49.536;8.500;2022-08-21T04:42:26;12.00;99.90
38241;DHT22;24037;49.536;8.500;2022-08-21T04:44:53;12.00;99.90
38241;DHT22;24037;49.536;8.500;2022-08-21T04:47:19;12.10;99.90
38241;DHT22;24037;49.536;8.500;2022-08-21T04:49:45;12.20;99.90
38241;DHT22;24037;49.536;8.500;2022-08-21T04:52:11;12.10;99.90
38241;DHT22;24037;49.536;8.500;2022-08-21T04:54:38;12.20;99.90
38241;DHT22;24037;49.536;8.500;2022-08-21T04:57:06;12.30;99.90
38241;DHT22;24037;49.536;8.500;2022-08-21T04:59:38;12.40;99.90
38241;DHT22;24037;49.536;8.500;2022-08-21T05:02:06;12.50;99.90
38241;DHT22;24037;49.536;8.500;2022-08-21T05:04:32;12.60;99.90
38241;DHT22;24037;49.536;8.500;2022-08-21T05:07:03;12.70;99.90
38241;DHT22;24037;49.536;8.500;2022-08-21T05:09:31;13.20;99.90
38241;DHT22;24037;49.536;8.500;2022-08-21T05:11:58;14.10;99.90
38241;DHT22;24037;49.536;8.500;2022-08-21T05:14:24;15.00;99.90
38241;DHT22;24037;49.536;8.500;2022-08-21T05:16:52;15.90;99.90
38241;DHT22;24037;49.536;8.500;2022-08-21T05:19:18;16.80;99.50
38241;DHT22;24037;49.536;8.500;2022-08-21T05:21:44;17.50;95.60
38241;DHT22;24037;49.536;8.500;2022-08-21T05:24:10;17.90;94.40
38241;DHT22;24037;49.536;8.500;2022-08-21T05:26:37;17.90;93.50
38241;DHT22;24037;49.536;8.500;2022-08-21T05:29:03;17.70;93.90
38241;DHT22;24037;49.536;8.500;2022-08-21T05:31:29;17.70;94.30
38241;DHT22;24037;49.536;8.500;2022-08-21T05:33:55;18.60;92.30
38241;DHT22;24037;49.536;8.500;2022-08-21T05:36:21;19.10;90.40
38241;DHT22;24037;49.536;8.500;2022-08-21T05:38:48;19.40;89.20
38241;DHT22;24037;49.536;8.500;2022-08-21T05:41:14;19.60;87.50
38241;DHT22;24037;49.536;8.500;2022-08-21T05:43:40;19.70;85.70
38241;DHT22;24037;49.536;8.500;2022-08-21T05:46:06;20.30;84.60
38241;DHT22;24037;49.536;8.500;2022-08-21T05:48:33;20.40;81.80
38241;DHT22;24037;49.536;8.500;2022-08-21T05:51:11;20.60;83.60
38241;DHT22;24037;49.536;8.500;2022-08-21T05:53:37;21.10;81.70
38241;DHT22;24037;49.536;8.500;2022-08-21T05:56:04;20.90;78.70
38241;DHT22;24037;49.536;8.500;2022-08-21T05:58:31;20.30;83.50
38241;DHT22;24037;49.536;8.500;2022-08-21T06:00:58;21.10;79.60
38241;DHT22;24037;49.536;8.500;2022-08-21T06:03:26;20.50;81.40
38241;DHT22;24037;49.536;8.500;2022-08-21T06:05:53;20.10;84.20
38241;DHT22;24037;49.536;8.500;2022-08-21T06:08:19;20.40;82.90
38241;DHT22;24037;49.536;8.500;2022-08-21T06:10:46;20.40;83.80
38241;DHT22;24037;49.536;8.500;2022-08-21T06:13:13;20.70;82.70
38241;DHT22;24037;49.536;8.500;2022-08-21T06:15:39;20.90;82.10
38241;DHT22;24037;49.536;8.500;2022-08-21T06:18:05;21.30;80.50
38241;DHT22;24037;49.536;8.500;2022-08-21T06:20:31;22.10;78.40
38241;DHT22;24037;49.536;8.500;2022-08-21T06:22:58;23.00;74.40
38241;DHT22;24037;49.536;8.500;2022-08-21T06:25:24;23.70;71.80
38241;DHT22;24037;49.536;8.500;2022-08-21T06:27:50;23.50;68.80
38241;DHT22;24037;49.536;8.500;2022-08-21T06:30:17;22.80;70.50
38241;DHT22;24037;49.536;8.500;2022-08-21T06:32:43;22.10;71.50
38241;DHT22;24037;49.536;8.500;2022-08-21T06:35:09;21.90;73.50
38241;DHT22;24037;49.536;8.500;2022-08-21T06:37:36;22.50;70.30
38241;DHT22;24037;49.536;8.500;2022-08-21T06:40:03;22.10;69.10
38241;DHT22;24037;49.536;8.500;2022-08-21T06:42:29;22.00;69.70
38241;DHT22;24037;49.536;8.500;2022-08-21T06:44:56;22.50;68.10
38241;DHT22;24037;49.536;8.500;2022-08-21T06:47:22;23.50;64.40
38241;DHT22;24037;49.536;8.500;2022-08-21T06:49:48;22.70;65.30
38241;DHT22;24037;49.536;8.500;2022-08-21T06:52:14;23.40;62.70
38241;DHT22;24037;49.536;8.500;2022-08-21T06:54:40;23.40;62.90
38241;DHT22;24037;49.536;8.500;2022-08-21T06:57:06;23.10;65.20
38241;DHT22;24037;49.536;8.500;2022-08-21T06:59:32;23.70;62.90
38241;DHT22;24037;49.536;8.500;2022-08-21T07:01:58;23.50;60.40
38241;DHT22;24037;49.536;8.500;2022-08-21T07:04:25;23.90;60.00
38241;DHT22;24037;49.536;8.500;2022-08-21T07:06:51;23.40;60.10
38241;DHT22;24037;49.536;8.500;2022-08-21T07:09:17;23.10;63.70
38241;DHT22;24037;49.536;8.500;2022-08-21T07:11:43;23.10;60.40
38241;DHT22;24037;49.536;8.500;2022-08-21T07:14:10;22.90;60.30
38241;DHT22;24037;49.536;8.500;2022-08-21T07:16:36;23.40;60.70
38241;DHT22;24037;49.536;8.500;2022-08-21T07:19:02;23.90;60.60
38241;DHT22;24037;49.536;8.500;2022-08-21T07:21:28;24.30;57.70
38241;DHT22;24037;49.536;8.500;2022-08-21T07:23:54;23.80;58.80
38241;DHT22;24037;49.536;8.500;2022-08-21T07:26:21;23.60;58.50
38241;DHT22;24037;49.536;8.500;2022-08-21T07:28:48;23.90;59.10
38241;DHT22;24037;49.536;8.500;2022-08-21T07:31:15;24.40;58.20
38241;DHT22;24037;49.536;8.500;2022-08-21T07:33:42;24.00;58.20
38241;DHT22;24037;49.536;8.500;2022-08-21T07:36:09;23.30;59.40
38241;DHT22;24037;49.536;8.500;2022-08-21T07:38:35;23.60;59.70
38241;DHT22;24037;49.536;8.500;2022-08-21T07:41:01;24.20;59.40
38241;DHT22;24037;49.536;8.500;2022-08-21T07:43:28;24.50;58.30
38241;DHT22;24037;49.536;8.500;2022-08-21T07:45:54;24.70;57.40
38241;DHT22;24037;49.536;8.500;2022-08-21T07:48:21;24.10;58.40
38241;DHT22;24037;49.536;8.500;2022-08-21T07:50:47;24.30;58.20
38241;DHT22;24037;49.536;8.500;2022-08-21T07:53:14;24.60;56.90
38241;DHT22;24037;49.536;8.500;2022-08-21T07:55:40;24.70;56.90
38241;DHT22;24037;49.536;8.500;2022-08-21T07:58:06;24.90;56.30
38241;DHT22;24037;49.536;8.500;2022-08-21T08:00:32;24.40;57.00
38241;DHT22;24037;49.536;8.500;2022-08-21T08:02:58;24.70;56.70
38241;DHT22;24037;49.536;8.500;2022-08-21T08:05:26;25.40;56.70
38241;DHT22;24037;49.536;8.500;2022-08-21T08:07:52;25.70;55.40
38241;DHT22;24037;49.536;8.500;2022-08-21T08:10:18;26.50;56.10
38241;DHT22;24037;49.536;8.500;2022-08-21T08:12:44;27.00;53.90
38241;DHT22;24037;49.536;8.500;2022-08-21T08:15:12;27.00;54.00
38241;DHT22;24037;49.536;8.500;2022-08-21T08:17:39;26.50;53.90
38241;DHT22;24037;49.536;8.500;2022-08-21T08:20:06;26.50;54.40
38241;DHT22;24037;49.536;8.500;2022-08-21T08:22:33;25.50;54.60
38241;DHT22;24037;49.536;8.500;2022-08-21T08:25:00;25.20;55.30
38241;DHT22;24037;49.536;8.500;2022-08-21T08:27:27;25.30;54.60
38241;DHT22;24037;49.536;8.500;2022-08-21T08:29:53;25.70;55.90
38241;DHT22;24037;49.536;8.500;2022-08-21T08:32:19;25.20;56.30
38241;DHT22;24037;49.536;8.500;2022-08-21T08:34:45;24.90;56.30
38241;DHT22;24037;49.536;8.500;2022-08-21T08:37:12;24.10;59.20
38241;DHT22;24037;49.536;8.500;2022-08-21T08:39:38;24.50;58.40
38241;DHT22;24037;49.536;8.500;2022-08-21T08:42:07;25.40;57.60
38241;DHT22;24037;49.536;8.500;2022-08-21T08:44:36;26.20;55.90
38241;DHT22;24037;49.536;8.500;2022-08-21T08:47:02;26.10;55.80
38241;DHT22;24037;49.536;8.500;2022-08-21T08:51:57;24.90;57.30
38241;DHT22;24037;49.536;8.500;2022-08-21T08:54:43;25.30;58.40
38241;DHT22;24037;49.536;8.500;2022-08-21T08:57:14;24.60;57.80
38241;DHT22;24037;49.536;8.500;2022-08-21T08:59:42;24.70;60.80
38241;DHT22;24037;49.536;8.500;2022-08-21T09:02:11;25.80;57.80
38241;DHT22;24037;49.536;8.500;2022-08-21T09:04:37;26.20;56.10
38241;DHT22;24037;49.536;8.500;2022-08-21T09:07:12;26.80;55.50
38241;DHT22;24037;49.536;8.500;2022-08-21T09:14:58;28.60;53.50
38241;DHT22;24037;49.536;8.500;2022-08-21T09:17:50;28.20;53.80
38241;DHT22;24037;49.536;8.500;2022-08-21T09:26:24;27.60;53.70
38241;DHT22;24037;49.536;8.500;2022-08-21T09:28:24;28.00;52.90
38241;DHT22;24037;49.536;8.500;2022-08-21T09:30:50;28.00;52.10
38241;DHT22;24037;49.536;8.500;2022-08-21T09:33:19;28.20;52.20
38241;DHT22;24037;49.536;8.500;2022-08-21T09:35:50;28.40;51.20
38241;DHT22;24037;49.536;8.500;2022-08-21T09:38:30;28.10;52.30
38241;DHT22;24037;49.536;8.500;2022-08-21T09:41:09;28.00;49.80
38241;DHT22;24037;49.536;8.500;2022-08-21T09:43:36;27.60;49.50
38241;DHT22;24037;49.536;8.500;2022-08-21T09:46:08;26.70;50.50
38241;DHT22;24037;49.536;8.500;2022-08-21T09:48:43;26.40;50.80
38241;DHT22;24037;49.536;8.500;2022-08-21T09:51:20;26.50;50.50
38241;DHT22;24037;49.536;8.500;2022-08-21T09:53:53;26.80;50.00
38241;DHT22;24037;49.536;8.500;2022-08-21T09:56:27;27.20;50.40
38241;DHT22;24037;49.536;8.500;2022-08-21T09:59:17;27.90;47.70
38241;DHT22;24037;49.536;8.500;2022-08-21T10:01:44;27.60;48.40
38241;DHT22;24037;49.536;8.500;2022-08-21T10:04:11;27.20;50.30
38241;DHT22;24037;49.536;8.500;2022-08-21T10:06:37;27.30;50.10
38241;DHT22;24037;49.536;8.500;2022-08-21T10:09:08;26.90;49.40
38241;DHT22;24037;49.536;8.500;2022-08-21T10:11:34;26.30;49.80
38241;DHT22;24037;49.536;8.500;2022-08-21T10:14:04;26.30;50.90
38241;DHT22;24037;49.536;8.500;2022-08-21T10:19:08;26.00;50.40
38241;DHT22;24037;49.536;8.500;2022-08-21T10:37:16;25.70;50.20
38241;DHT22;24037;49.536;8.500;2022-08-21T10:39:47;25.60;50.70
38241;DHT22;24037;49.536;8.500;2022-08-21T10:43:20;25.90;50.60
38241;DHT22;24037;49.536;8.500;2022-08-21T10:48:28;26.00;50.10
38241;DHT22;24037;49.536;8.500;2022-08-21T10:50:37;25.60;49.70
38241;DHT22;24037;49.536;8.500;2022-08-21T10:56:01;25.90;49.90
38241;DHT22;24037;49.536;8.500;2022-08-21T11:00:58;25.50;49.70
38241;DHT22;24037;49.536;8.500;2022-08-21T11:03:32;25.40;50.40
38241;DHT22;24037;49.536;8.500;2022-08-21T11:08:41;25.70;49.60
38241;DHT22;24037;49.536;8.500;2022-08-21T11:16:05;26.10;48.50
38241;DHT22;24037;49.536;8.500;2022-08-21T11:21:45;26.10;48.90
38241;DHT22;24037;49.536;8.500;2022-08-21T11:26:49;26.50;48.40
38241;DHT22;24037;49.536;8.500;2022-08-21T11:29:19;26.60;49.10
38241;DHT22;24037;49.536;8.500;2022-08-21T11:34:19;26.90;48.60
38241;DHT22;24037;49.536;8.500;2022-08-21T11:37:02;26.80;47.70
38241;DHT22;24037;49.536;8.500;2022-08-21T11:39:50;26.50;48.20
38241;DHT22;24037;49.536;8.500;2022-08-21T11:42:26;26.40;47.40
38241;DHT22;24037;49.536;8.500;2022-08-21T11:50:18;26.40;48.30
38241;DHT22;24037;49.536;8.500;2022-08-21T11:55:12;26.20;48.60
38241;DHT22;24037;49.536;8.500;2022-08-21T11:57:49;26.30;47.80
38241;DHT22;24037;49.536;8.500;2022-08-21T12:00:19;26.40;48.10
38241;DHT22;24037;49.536;8.500;2022-08-21T12:02:50;26.70;48.20
38241;DHT22;24037;49.536;8.500;2022-08-21T12:05:33;26.90;47.00
38241;DHT22;24037;49.536;8.500;2022-08-21T12:08:02;26.70;47.40
38241;DHT22;24037;49.536;8.500;2022-08-21T12:10:38;26.30;48.00
38241;DHT22;24037;49.536;8.500;2022-08-21T12:13:06;26.10;48.40
38241;DHT22;24037;49.536;8.500;2022-08-21T12:15:34;26.20;48.60
38241;DHT22;24037;49.536;8.500;2022-08-21T12:23:06;27.20;46.80
38241;DHT22;24037;49.536;8.500;2022-08-21T12:25:41;27.30;46.90
38241;DHT22;24037;49.536;8.500;2022-08-21T12:28:15;27.10;46.80
38241;DHT22;24037;49.536;8.500;2022-08-21T12:30:43;27.00;46.70
38241;DHT22;24037;49.536;8.500;2022-08-21T12:36:01;26.50;48.00
38241;DHT22;24037;49.536;8.500;2022-08-21T12:38:28;27.20;47.40
38241;DHT22;24037;49.536;8.500;2022-08-21T12:40:56;27.60;46.80
38241;DHT22;24037;49.536;8.500;2022-08-21T12:43:30;27.50;47.30
38241;DHT22;24037;49.536;8.500;2022-08-21T12:45:57;27.50;46.10
38241;DHT22;24037;49.536;8.500;2022-08-21T12:48:31;27.20;46.30
38241;DHT22;24037;49.536;8.500;2022-08-21T12:51:07;27.30;47.00
38241;DHT22;24037;49.536;8.500;2022-08-21T12:53:49;27.20;46.50
38241;DHT22;24037;49.536;8.500;2022-08-21T12:56:16;27.50;47.00
38241;DHT22;24037;49.536;8.500;2022-08-21T12:58:47;27.40;46.10
38241;DHT22;24037;49.536;8.500;2022-08-21T13:01:21;27.50;46.10
38241;DHT22;24037;49.536;8.500;2022-08-21T13:03:49;27.50;46.60
38241;DHT22;24037;49.536;8.500;2022-08-21T13:06:16;27.70;46.50
38241;DHT22;24037;49.536;8.500;2022-08-21T13:08:43;28.00;46.30
38241;DHT22;24037;49.536;8.500;2022-08-21T13:11:10;28.10;46.10
38241;DHT22;24037;49.536;8.500;2022-08-21T13:13:39;27.90;45.20
38241;DHT22;24037;49.536;8.500;2022-08-21T13:16:06;28.00;45.50
38241;DHT22;24037;49.536;8.500;2022-08-21T13:18:33;27.90;45.40
38241;DHT22;24037;49.536;8.500;2022-08-21T13:21:09;28.10;45.60
38241;DHT22;24037;49.536;8.500;2022-08-21T13:23:36;28.00;44.60
38241;DHT22;24037;49.536;8.500;2022-08-21T13:26:11;27.60;45.50
38241;DHT22;24037;49.536;8.500;2022-08-21T13:28:38;27.50;45.00
38241;DHT22;24037;49.536;8.500;2022-08-21T13:31:06;27.50;45.30
38241;DHT22;24037;49.536;8.500;2022-08-21T13:33:32;27.40;44.90
38241;DHT22;24037;49.536;8.500;2022-08-21T13:38:26;27.60;45.40
38241;DHT22;24037;49.536;8.500;2022-08-21T13:40:58;27.80;46.00
38241;DHT22;24037;49.536;8.500;2022-08-21T13:43:26;27.60;45.00
38241;DHT22;24037;49.536;8.500;2022-08-21T13:45:54;27.60;45.00
38241;DHT22;24037;49.536;8.500;2022-08-21T13:48:22;27.80;45.30
38241;DHT22;24037;49.536;8.500;2022-08-21T13:50:49;28.30;45.00
38241;DHT22;24037;49.536;8.500;2022-08-21T13:55:47;28.70;43.70
38241;DHT22;24037;49.536;8.500;2022-08-21T13:58:23;28.10;44.10
38241;DHT22;24037;49.536;8.500;2022-08-21T14:00:50;28.00;44.10
38241;DHT22;24037;49.536;8.500;2022-08-21T14:06:01;27.80;44.90
38241;DHT22;24037;49.536;8.500;2022-08-21T14:08:29;28.00;44.50
38241;DHT22;24037;49.536;8.500;2022-08-21T14:10:57;28.00;44.40
38241;DHT22;24037;49.536;8.500;2022-08-21T14:16:29;28.60;44.60
38241;DHT22;24037;49.536;8.500;2022-08-21T14:21:37;29.10;45.10
38241;DHT22;24037;49.536;8.500;2022-08-21T14:26:35;28.90;44.20
38241;DHT22;24037;49.536;8.500;2022-08-21T14:29:02;28.30;43.90
38241;DHT22;24037;49.536;8.500;2022-08-21T14:31:30;27.90;44.40
38241;DHT22;24037;49.536;8.500;2022-08-21T14:33:59;28.00;44.70
38241;DHT22;24037;49.536;8.500;2022-08-21T14:36:24;28.10;44.20
38241;DHT22;24037;49.536;8.500;2022-08-21T14:38:51;27.80;43.90
38241;DHT22;24037;49.536;8.500;2022-08-21T14:41:18;28.00;45.10
38241;DHT22;24037;49.536;8.500;2022-08-21T14:43:45;28.00;44.30
38241;DHT22;24037;49.536;8.500;2022-08-21T14:46:12;28.20;44.80
38241;DHT22;24037;49.536;8.500;2022-08-21T14:48:39;28.30;43.90
38241;DHT22;24037;49.536;8.500;2022-08-21T14:51:05;28.10;45.30
38241;DHT22;24037;49.536;8.500;2022-08-21T14:53:32;28.60;44.20
38241;DHT22;24037;49.536;8.500;2022-08-21T14:55:58;28.90;43.90
38241;DHT22;24037;49.536;8.500;2022-08-21T14:58:34;28.90;44.20
38241;DHT22;24037;49.536;8.500;2022-08-21T15:01:00;28.70;43.50
38241;DHT22;24037;49.536;8.500;2022-08-21T15:03:29;28.50;43.20
38241;DHT22;24037;49.536;8.500;2022-08-21T15:05:56;28.50;44.30
38241;DHT22;24037;49.536;8.500;2022-08-21T15:08:22;28.70;44.10
38241;DHT22;24037;49.536;8.500;2022-08-21T15:10:48;28.70;43.10
38241;DHT22;24037;49.536;8.500;2022-08-21T15:13:14;28.30;44.70
38241;DHT22;24037;49.536;8.500;2022-08-21T15:15:41;28.50;44.80
38241;DHT22;24037;49.536;8.500;2022-08-21T15:18:08;28.80;44.20
38241;DHT22;24037;49.536;8.500;2022-08-21T15:20:34;28.90;43.60
38241;DHT22;24037;49.536;8.500;2022-08-21T15:23:01;28.70;44.00
38241;DHT22;24037;49.536;8.500;2022-08-21T15:25:29;28.20;43.10
38241;DHT22;24037;49.536;8.500;2022-08-21T15:27:55;27.60;43.60
38241;DHT22;24037;49.536;8.500;2022-08-21T15:30:22;27.80;44.00
38241;DHT22;24037;49.536;8.500;2022-08-21T15:32:48;27.70;44.00
38241;DHT22;24037;49.536;8.500;2022-08-21T15:35:14;27.90;43.90
38241;DHT22;24037;49.536;8.500;2022-08-21T15:37:40;27.80;43.50
38241;DHT22;24037;49.536;8.500;2022-08-21T15:40:06;27.70;43.40
38241;DHT22;24037;49.536;8.500;2022-08-21T15:42:33;27.60;44.60
38241;DHT22;24037;49.536;8.500;2022-08-21T15:44:59;27.40;44.20
38241;DHT22;24037;49.536;8.500;2022-08-21T15:47:31;27.40;44.70
38241;DHT22;24037;49.536;8.500;2022-08-21T15:49:59;27.50;44.40
38241;DHT22;24037;49.536;8.500;2022-08-21T15:52:25;27.70;44.00
38241;DHT22;24037;49.536;8.500;2022-08-21T15:54:51;27.70;44.20
38241;DHT22;24037;49.536;8.500;2022-08-21T15:57:19;27.80;43.80
38241;DHT22;24037;49.536;8.500;2022-08-21T15:59:46;27.70;43.70
38241;DHT22;24037;49.536;8.500;2022-08-21T16:02:20;27.60;44.30
38241;DHT22;24037;49.536;8.500;2022-08-21T16:04:47;27.40;44.60
38241;DHT22;24037;49.536;8.500;2022-08-21T16:07:13;27.30;44.60
38241;DHT22;24037;49.536;8.500;2022-08-21T16:09:39;27.30;45.50
38241;DHT22;24037;49.536;8.500;2022-08-21T16:12:05;27.20;44.50
38241;DHT22;24037;49.536;8.500;2022-08-21T16:14:32;27.10;44.70
38241;DHT22;24037;49.536;8.500;2022-08-21T16:17:00;27.20;44.70
38241;DHT22;24037;49.536;8.500;2022-08-21T16:19:27;27.40;43.90
38241;DHT22;24037;49.536;8.500;2022-08-21T16:21:53;27.60;44.70
38241;DHT22;24037;49.536;8.500;2022-08-21T16:24:19;27.60;43.10
38241;DHT22;24037;49.536;8.500;2022-08-21T16:26:45;27.60;43.30
38241;DHT22;24037;49.536;8.500;2022-08-21T16:29:11;27.80;43.50
38241;DHT22;24037;49.536;8.500;2022-08-21T16:31:37;27.80;43.20
38241;DHT22;24037;49.536;8.500;2022-08-21T16:34:03;27.80;42.50
38241;DHT22;24037;49.536;8.500;2022-08-21T16:36:29;27.80;43.20
38241;DHT22;24037;49.536;8.500;2022-08-21T16:38:55;27.80;42.70
38241;DHT22;24037;49.536;8.500;2022-08-21T16:41:22;27.70;43.10
38241;DHT22;24037;49.536;8.500;2022-08-21T16:43:49;27.70;43.70
38241;DHT22;24037;49.536;8.500;2022-08-21T16:46:16;27.60;43.30
38241;DHT22;24037;49.536;8.500;2022-08-21T16:48:42;27.50;43.20
38241;DHT22;24037;49.536;8.500;2022-08-21T16:51:12;27.30;43.10
38241;DHT22;24037;49.536;8.500;2022-08-21T16:53:39;27.30;43.50
38241;DHT22;24037;49.536;8.500;2022-08-21T16:56:05;27.20;43.00
38241;DHT22;24037;49.536;8.500;2022-08-21T16:58:33;27.10;43.30
38241;DHT22;24037;49.536;8.500;2022-08-21T17:00:59;27.00;43.40
38241;DHT22;24037;49.536;8.500;2022-08-21T17:03:29;27.00;43.50